Time;durP1;ratioP1;P1;durP2;ratioP2;P2;SDS_P1;SDS_P2;PMS_P1;PMS_P2;Temp;Humidity;BMP_temperature;BMP_pressure;BME280_temperature;BME280_humidity;BME280_pressure;Samples;Min_cycle;Max_cycle;Signal;HPM_P1;HPM_P2
2022/10/29 00:02:04;;;;;;;12.73;6.72;;;8.50;99.90;;;;;;5071714;28;20028;-51
2022/10/29 00:04:30;;;;;;;10.18;6.85;;;8.50;99.90;;;;;;5071524;28;20403;-50
2022/10/29 00:06:56;;;;;;;16.88;7.85;;;8.50;99.90;;;;;;5071710;28;20025;-52
2022/10/29 00:09:21;;;;;;;14.90;7.30;;;8.50;99.90;;;;;;5071349;28;20090;-53
2022/10/29 00:11:47;;;;;;;19.23;7.93;;;8.40;99.90;;;;;;5071614;28;20032;-52
2022/10/29 00:14:12;;;;;;;10.43;6.70;;;8.50;99.90;;;;;;5070371;28;20033;-51
2022/10/29 00:16:39;;;;;;;13.02;7.03;;;8.40;99.90;;;;;;5071543;28;20024;-50
2022/10/29 00:19:05;;;;;;;13.88;7.47;;;8.40;99.90;;;;;;5071578;28;20029;-53
2022/10/29 00:21:31;;;;;;;12.63;6.70;;;8.40;99.90;;;;;;5070091;28;20032;-53
2022/10/29 00:23:57;;;;;;;12.68;7.60;;;8.40;99.90;;;;;;5071580;28;20074;-52
2022/10/29 00:26:24;;;;;;;12.00;7.93;;;8.40;99.90;;;;;;5071419;28;20494;-51
2022/10/29 00:28:54;;;;;;;14.13;7.47;;;8.40;99.90;;;;;;5071349;28;20051;-53
2022/10/29 00:31:24;;;;;;;18.02;8.25;;;8.40;99.90;;;;;;5071382;28;20020;-55
2022/10/29 00:33:51;;;;;;;9.43;6.93;;;8.40;99.90;;;;;;5071577;28;20028;-54
2022/10/29 00:36:23;;;;;;;10.32;6.63;;;8.40;99.90;;;;;;5071298;28;20138;-51
2022/10/29 00:38:49;;;;;;;14.55;6.50;;;8.40;99.90;;;;;;5071396;28;20040;-49
2022/10/29 00:41:20;;;;;;;10.38;7.97;;;8.30;99.90;;;;;;5071168;28;20413;-53
2022/10/29 00:43:49;;;;;;;18.60;7.88;;;8.30;99.90;;;;;;5071151;28;20037;-54
2022/10/29 00:46:22;;;;;;;10.07;7.43;;;8.30;99.90;;;;;;5069671;28;20025;-55
2022/10/29 00:48:51;;;;;;;12.38;7.75;;;8.30;99.90;;;;;;5071390;28;20017;-52
2022/10/29 00:51:18;;;;;;;12.23;8.50;;;8.30;99.90;;;;;;5070987;28;20479;-53
2022/10/29 00:53:52;;;;;;;13.55;8.18;;;8.40;99.90;;;;;;5071182;28;20031;-54
2022/10/29 00:56:18;;;;;;;12.02;7.38;;;8.30;99.90;;;;;;5070817;28;20035;-55
2022/10/29 00:58:44;;;;;;;18.23;8.07;;;8.30;99.90;;;;;;5071231;28;20029;-52
2022/10/29 01:01:10;;;;;;;10.07;8.60;;;8.30;99.90;;;;;;5070918;28;20032;-55
2022/10/29 01:03:37;;;;;;;12.13;7.55;;;8.30;99.90;;;;;;5071069;28;20025;-55
2022/10/29 01:06:04;;;;;;;10.65;7.97;;;8.30;99.90;;;;;;5071023;28;20029;-52
2022/10/29 01:08:29;;;;;;;14.23;7.63;;;8.30;99.90;;;;;;5070762;28;20032;-54
2022/10/29 01:11:25;;;;;;;14.00;7.30;;;8.30;99.90;;;;;;5070823;28;20047;-53
2022/10/29 01:13:57;;;;;;;8.77;7.18;;;8.30;99.90;;;;;;5071136;28;20029;-54
2022/10/29 01:16:43;;;;;;;16.48;7.28;;;8.30;99.90;;;;;;5070930;28;20108;-54
2022/10/29 01:19:39;;;;;;;10.25;7.63;;;8.30;99.90;;;;;;5070800;28;20539;-55
2022/10/29 01:22:15;;;;;;;11.85;7.10;;;8.20;99.90;;;;;;5069762;28;20024;-54
2022/10/29 01:24:44;;;;;;;23.20;7.72;;;8.20;99.90;;;;;;5070890;28;20470;-52
2022/10/29 01:27:42;;;;;;;10.05;7.47;;;8.20;99.90;;;;;;5074296;28;20517;-52
2022/10/29 01:30:34;;;;;;;16.13;8.68;;;8.20;99.90;;;;;;5051349;28;20035;-52
2022/10/29 01:33:09;;;;;;;13.27;7.72;;;8.20;99.90;;;;;;5058231;28;20070;-50
2022/10/29 01:35:55;;;;;;;15.35;8.07;;;8.20;99.90;;;;;;5072845;28;20036;-52
2022/10/29 01:38:20;;;;;;;20.52;7.03;;;8.20;99.90;;;;;;5074272;28;20027;-51
2022/10/29 01:40:58;;;;;;;10.45;7.45;;;8.20;99.90;;;;;;5074335;28;20025;-51
2022/10/29 01:43:32;;;;;;;12.38;7.63;;;8.10;99.90;;;;;;5074245;28;20020;-52
2022/10/29 01:46:05;;;;;;;10.43;7.82;;;8.10;99.90;;;;;;5074289;28;20103;-53
2022/10/29 01:48:38;;;;;;;9.55;7.65;;;8.10;99.90;;;;;;5072566;28;20032;-52
2022/10/29 01:51:09;;;;;;;15.95;8.73;;;8.00;99.90;;;;;;5074057;28;20027;-53
2022/10/29 01:53:37;;;;;;;12.75;9.50;;;8.00;99.90;;;;;;5074049;28;20025;-51
2022/10/29 01:56:03;;;;;;;8.80;7.50;;;8.00;99.90;;;;;;5074163;28;20426;-53
2022/10/29 01:58:30;;;;;;;10.63;7.13;;;8.00;99.90;;;;;;5073839;28;20032;-51
2022/10/29 02:01:29;;;;;;;9.52;6.35;;;7.90;99.90;;;;;;5073881;28;20032;-52
2022/10/29 02:03:57;;;;;;;10.18;6.97;;;7.90;99.90;;;;;;5053918;28;20018;-50
2022/10/29 02:06:44;;;;;;;13.65;7.25;;;7.90;99.90;;;;;;5053872;28;20025;-52
2022/10/29 02:09:46;;;;;;;13.35;7.15;;;7.90;99.90;;;;;;5053649;28;20068;-53
2022/10/29 02:12:15;;;;;;;8.68;6.68;;;7.90;99.90;;;;;;5072210;28;20072;-52
2022/10/29 02:15:02;;;;;;;8.05;7.18;;;7.90;99.90;;;;;;5072576;28;20107;-51
2022/10/29 02:17:31;;;;;;;15.27;6.88;;;8.00;99.90;;;;;;5073691;28;20024;-52
2022/10/29 02:19:56;;;;;;;14.10;8.40;;;8.00;99.90;;;;;;5073383;28;20058;-53
2022/10/29 02:22:22;;;;;;;14.27;8.60;;;7.90;99.90;;;;;;5073554;28;20135;-51
2022/10/29 02:24:47;;;;;;;41.58;10.18;;;7.90;99.90;;;;;;5073516;28;20017;-52
2022/10/29 02:27:13;;;;;;;23.02;8.85;;;7.90;99.90;;;;;;5073332;28;20074;-50
2022/10/29 02:29:39;;;;;;;34.47;10.52;;;8.00;99.90;;;;;;5073388;28;20104;-51
2022/10/29 02:32:04;;;;;;;53.00;9.80;;;8.00;99.90;;;;;;5073497;28;20521;-51
2022/10/29 02:34:30;;;;;;;28.63;9.85;;;8.00;99.90;;;;;;5073113;28;20031;-52
2022/10/29 02:36:56;;;;;;;31.00;9.77;;;8.00;99.90;;;;;;5072744;28;20079;-51
2022/10/29 02:39:21;;;;;;;26.70;9.63;;;7.90;99.90;;;;;;5073165;28;20149;-50
2022/10/29 02:41:47;;;;;;;21.70;10.30;;;7.80;99.90;;;;;;5073350;28;20495;-50
2022/10/29 02:44:13;;;;;;;19.17;11.68;;;7.90;99.90;;;;;;5073021;28;20025;-51
2022/10/29 02:46:39;;;;;;;49.38;11.88;;;7.90;99.90;;;;;;5073164;28;20574;-50
2022/10/29 02:49:08;;;;;;;13.27;11.48;;;7.90;99.90;;;;;;5073132;28;20052;-50
2022/10/29 02:51:33;;;;;;;20.05;11.07;;;7.90;99.90;;;;;;5073053;28;20024;-51
2022/10/29 02:53:59;;;;;;;15.85;10.32;;;7.90;99.90;;;;;;5073086;28;20028;-50
2022/10/29 02:56:24;;;;;;;11.40;9.50;;;7.80;99.90;;;;;;5072879;28;20486;-49
2022/10/29 02:58:50;;;;;;;10.52;9.30;;;7.80;99.90;;;;;;5072892;28;20052;-51
2022/10/29 03:01:16;;;;;;;11.45;9.80;;;7.80;99.90;;;;;;5072735;28;20028;-50
2022/10/29 03:03:41;;;;;;;11.43;8.68;;;7.80;99.90;;;;;;5072446;28;20020;-50
2022/10/29 03:06:15;;;;;;;11.77;9.32;;;7.90;99.90;;;;;;5072812;28;20071;-52
2022/10/29 03:08:40;;;;;;;;;;;7.80;99.90;;;;;;5073050;28;20383;-49
2022/10/29 03:11:06;;;;;;;9.15;7.80;;;7.80;99.90;;;;;;5071350;28;19905;-52
2022/10/29 03:13:32;;;;;;;8.27;7.57;;;7.80;99.90;;;;;;5072502;28;20537;-51
2022/10/29 03:15:57;;;;;;;7.65;6.95;;;7.70;99.90;;;;;;5072313;28;20028;-50
2022/10/29 03:18:23;;;;;;;8.80;7.97;;;7.70;99.90;;;;;;5072364;28;20052;-54
2022/10/29 03:20:49;;;;;;;8.52;7.80;;;7.70;99.90;;;;;;5072488;28;20507;-51
2022/10/29 03:23:14;;;;;;;9.20;8.35;;;7.70;99.90;;;;;;5072322;28;20028;-54
2022/10/29 03:25:40;;;;;;;9.18;8.07;;;7.60;99.90;;;;;;5072404;28;20028;-50
2022/10/29 03:28:06;;;;;;;15.82;7.72;;;7.60;99.90;;;;;;5072363;28;20017;-55
2022/10/29 03:30:32;;;;;;;25.73;9.30;;;7.50;99.90;;;;;;5072093;28;20025;-54
2022/10/29 03:32:57;;;;;;;26.98;8.85;;;7.60;99.90;;;;;;5072152;28;20115;-53
2022/10/29 03:35:23;;;;;;;38.83;9.30;;;7.50;99.90;;;;;;5072094;28;20463;-53
2022/10/29 03:37:50;;;;;;;79.82;10.98;;;7.40;99.90;;;;;;5072121;28;20058;-51
2022/10/29 03:40:17;;;;;;;94.18;11.05;;;7.40;99.90;;;;;;5070571;28;20020;-50
2022/10/29 03:42:43;;;;;;;97.45;11.10;;;7.40;99.90;;;;;;5072185;28;20403;-52
2022/10/29 03:45:09;;;;;;;73.25;10.77;;;7.50;99.90;;;;;;5072174;28;20028;-54
2022/10/29 03:47:35;;;;;;;189.13;12.35;;;7.50;99.90;;;;;;5071715;28;20052;-52
2022/10/29 03:50:01;;;;;;;130.07;10.40;;;7.50;99.90;;;;;;5071119;28;20086;-51
2022/10/29 03:52:27;;;;;;;64.55;10.57;;;7.50;99.90;;;;;;5071709;28;20029;-55
2022/10/29 03:54:53;;;;;;;85.63;10.35;;;7.50;99.90;;;;;;5071934;28;20125;-51
2022/10/29 03:57:19;;;;;;;72.25;9.27;;;7.50;99.90;;;;;;5071738;28;20115;-54
2022/10/29 03:59:44;;;;;;;108.82;10.55;;;7.50;99.90;;;;;;5071783;28;20529;-53
2022/10/29 04:02:11;;;;;;;83.88;9.18;;;7.50;99.90;;;;;;5071532;28;20040;-52
2022/10/29 04:04:37;;;;;;;30.48;8.70;;;7.50;99.90;;;;;;5071673;28;20102;-50
2022/10/29 04:07:03;;;;;;;13.40;7.63;;;7.50;99.90;;;;;;5071714;28;20024;-54
2022/10/29 04:09:29;;;;;;;49.60;8.15;;;7.50;99.90;;;;;;5071253;28;20122;-51
2022/10/29 04:11:55;;;;;;;56.00;8.50;;;7.40;99.90;;;;;;5071643;28;20439;-54
2022/10/29 04:14:20;;;;;;;43.08;8.82;;;7.30;99.90;;;;;;5071028;28;20464;-52
2022/10/29 04:16:46;;;;;;;59.17;9.52;;;7.30;99.90;;;;;;5071515;28;20054;-53
2022/10/29 04:19:12;;;;;;;57.08;10.68;;;7.30;99.90;;;;;;5069675;28;20150;-51
2022/10/29 04:21:38;;;;;;;55.70;8.57;;;7.30;99.90;;;;;;5071343;28;20035;-52
2022/10/29 04:24:04;;;;;;;51.97;8.65;;;7.20;99.90;;;;;;5070577;28;20398;-53
2022/10/29 04:26:29;;;;;;;37.58;7.78;;;7.20;99.90;;;;;;5070570;28;20032;-51
2022/10/29 04:28:55;;;;;;;30.77;7.70;;;7.20;99.90;;;;;;5071012;28;20021;-54
2022/10/29 04:31:21;;;;;;;15.40;7.45;;;7.20;99.90;;;;;;5070291;28;20036;-52
2022/10/29 04:33:46;;;;;;;56.40;9.02;;;7.30;99.90;;;;;;5069059;28;20037;-50
2022/10/29 04:36:12;;;;;;;35.08;7.95;;;7.30;99.90;;;;;;5070573;28;20480;-50
2022/10/29 04:38:38;;;;;;;47.40;7.85;;;7.30;99.90;;;;;;5071353;28;20512;-50
2022/10/29 04:41:04;;;;;;;33.63;6.85;;;7.30;99.90;;;;;;5071427;28;20028;-51
2022/10/29 04:43:30;;;;;;;49.53;8.32;;;7.30;99.90;;;;;;5071179;28;20612;-50
2022/10/29 04:45:57;;;;;;;27.90;8.35;;;7.20;99.90;;;;;;5071335;28;20021;-51
2022/10/29 04:48:25;;;;;;;37.67;7.18;;;7.30;99.90;;;;;;5071029;28;20033;-52
2022/10/29 04:50:51;;;;;;;24.95;6.97;;;7.30;99.90;;;;;;5071179;28;20033;-51
2022/10/29 04:53:17;;;;;;;78.60;9.05;;;7.20;99.90;;;;;;5071095;28;20052;-51
2022/10/29 04:55:43;;;;;;;70.97;8.52;;;7.20;99.90;;;;;;5071303;28;20106;-50
2022/10/29 04:58:14;;;;;;;58.50;9.05;;;7.20;99.90;;;;;;5071006;28;20040;-51
2022/10/29 05:00:41;;;;;;;37.42;7.85;;;7.10;99.90;;;;;;5072227;28;20069;-50
2022/10/29 05:03:07;;;;;;;26.77;7.53;;;7.10;99.90;;;;;;5073772;28;20545;-52
2022/10/29 05:05:34;;;;;;;76.90;8.82;;;7.10;99.90;;;;;;5074721;28;20025;-51
2022/10/29 05:08:02;;;;;;;40.25;8.60;;;7.00;99.90;;;;;;5074751;28;20430;-50
2022/10/29 05:10:30;;;;;;;16.48;7.53;;;7.00;99.90;;;;;;5074990;28;20064;-51
2022/10/29 05:13:00;;;;;;;41.70;8.10;;;7.00;99.90;;;;;;5074774;28;20131;-51
2022/10/29 05:15:26;;;;;;;46.60;8.82;;;7.00;99.90;;;;;;5074631;28;20024;-49
2022/10/29 05:17:52;;;;;;;25.08;8.02;;;7.00;99.90;;;;;;5074865;28;20030;-50
2022/10/29 05:20:18;;;;;;;28.00;8.65;;;6.90;99.90;;;;;;5074430;28;20028;-50
2022/10/29 05:22:44;;;;;;;10.65;7.43;;;6.90;99.90;;;;;;5074761;28;20073;-50
2022/10/29 05:25:10;;;;;;;30.95;8.20;;;6.80;99.90;;;;;;5073330;28;20368;-51
2022/10/29 05:27:35;;;;;;;21.45;7.45;;;6.70;99.90;;;;;;5074608;28;20046;-51
2022/10/29 05:30:01;;;;;;;7.72;6.93;;;6.70;99.90;;;;;;5074353;28;20025;-53
2022/10/29 05:32:30;;;;;;;7.68;6.97;;;6.70;99.90;;;;;;5074456;28;20016;-50
2022/10/29 05:34:55;;;;;;;9.25;8.07;;;6.60;99.90;;;;;;5074407;28;20028;-51
2022/10/29 05:37:24;;;;;;;7.82;6.68;;;6.60;99.90;;;;;;5074292;28;20017;-50
2022/10/29 05:39:50;;;;;;;22.52;15.60;;;6.70;99.90;;;;;;5074339;28;20033;-49
2022/10/29 05:42:16;;;;;;;10.20;7.35;;;6.60;99.90;;;;;;5072932;28;20025;-50
2022/10/29 05:44:42;;;;;;;8.82;6.65;;;6.60;99.90;;;;;;5074219;28;20025;-51
2022/10/29 05:47:07;;;;;;;9.00;6.78;;;6.60;99.90;;;;;;5074302;28;20020;-50
2022/10/29 05:49:33;;;;;;;9.70;7.55;;;6.70;99.90;;;;;;5074078;28;20363;-50
2022/10/29 05:51:58;;;;;;;7.32;6.63;;;6.70;99.90;;;;;;5074150;28;20154;-50
2022/10/29 05:54:24;;;;;;;13.10;6.93;;;6.60;99.90;;;;;;5072762;28;20040;-49
2022/10/29 05:56:50;;;;;;;10.55;6.38;;;6.60;99.90;;;;;;5074011;28;20035;-51
2022/10/29 05:59:34;;;;;;;6.53;5.93;;;6.60;99.90;;;;;;5072557;28;20030;-50
2022/10/29 06:02:00;;;;;;;14.80;8.13;;;6.60;99.90;;;;;;5053761;28;20108;-50
2022/10/29 06:04:25;;;;;;;13.77;7.45;;;6.60;99.90;;;;;;5053841;28;20583;-50
2022/10/29 06:06:51;;;;;;;8.30;7.43;;;6.50;99.90;;;;;;5053873;28;20025;-51
2022/10/29 06:09:16;;;;;;;11.40;7.93;;;6.60;99.90;;;;;;5053899;28;20049;-50
2022/10/29 06:11:43;;;;;;;9.18;7.32;;;6.60;99.90;;;;;;5064774;28;20422;-52
2022/10/29 06:14:09;;;;;;;14.05;7.85;;;6.70;99.90;;;;;;5073654;28;20025;-52
2022/10/29 06:16:34;;;;;;;12.23;8.75;;;6.80;99.90;;;;;;5073565;28;20074;-50
2022/10/29 06:19:00;;;;;;;9.38;8.38;;;7.00;99.90;;;;;;5073614;28;20016;-50
2022/10/29 06:21:25;;;;;;;7.60;6.75;;;7.00;99.90;;;;;;5073715;28;20024;-50
2022/10/29 06:23:53;;;;;;;7.53;6.80;;;7.10;99.90;;;;;;5073439;28;20025;-51
2022/10/29 06:26:18;;;;;;;7.68;7.00;;;7.20;99.90;;;;;;5073223;28;20017;-50
2022/10/29 06:28:44;;;;;;;10.98;6.47;;;7.30;99.90;;;;;;5073437;28;20446;-50
2022/10/29 06:31:09;;;;;;;135.10;66.82;;;7.40;99.90;;;;;;5073245;28;20708;-50
2022/10/29 06:33:35;;;;;;;13.07;9.80;;;7.90;99.90;;;;;;5073396;28;20086;-50
2022/10/29 06:36:01;;;;;;;16.63;10.95;;;8.20;99.90;;;;;;5072933;28;20070;-51
2022/10/29 06:38:26;;;;;;;53.70;27.60;;;8.50;99.90;;;;;;5072690;28;20027;-58
2022/10/29 06:40:52;;;;;;;15.45;8.82;;;9.00;99.90;;;;;;5073306;28;20060;-67
2022/10/29 06:43:24;;;;;;;10.38;6.07;;;9.20;99.90;;;;;;5073095;28;20028;-50
2022/10/29 06:45:49;;;;;;;8.60;5.93;;;8.90;99.90;;;;;;5072464;28;20025;-51
2022/10/29 06:48:15;;;;;;;17.27;11.65;;;8.80;99.90;;;;;;5072803;28;20030;-50
2022/10/29 06:50:41;;;;;;;18.00;13.85;;;8.90;99.90;;;;;;5072907;28;20029;-52
2022/10/29 06:53:11;;;;;;;18.17;11.10;;;9.00;99.90;;;;;;5072881;28;20028;-52
2022/10/29 06:55:36;;;;;;;23.92;12.13;;;9.10;99.90;;;;;;5071686;28;20024;-51
2022/10/29 06:58:03;;;;;;;15.45;10.52;;;9.20;99.90;;;;;;5073064;28;20073;-52
2022/10/29 07:00:30;;;;;;;18.38;9.65;;;9.40;99.90;;;;;;5072214;28;20029;-52
2022/10/29 07:02:56;;;;;;;26.20;10.20;;;9.60;99.90;;;;;;5072573;28;20013;-51
2022/10/29 07:05:23;;;;;;;15.02;10.32;;;9.70;99.90;;;;;;5072668;28;20024;-51
2022/10/29 07:07:53;;;;;;;16.02;10.18;;;9.90;99.90;;;;;;5072451;28;20017;-50
2022/10/29 07:10:18;;;;;;;13.60;9.10;;;10.10;99.90;;;;;;5071177;28;20487;-51
2022/10/29 07:12:44;;;;;;;11.55;4.75;;;10.20;99.90;;;;;;5072522;28;20032;-52
2022/10/29 07:15:11;;;;;;;13.18;6.88;;;10.40;99.90;;;;;;5072606;28;20123;-51
2022/10/29 07:17:37;;;;;;;11.48;6.20;;;10.50;99.90;;;;;;5072656;28;20107;-51
2022/10/29 07:20:04;;;;;;;11.85;5.13;;;10.60;99.90;;;;;;5072362;28;20107;-52
2022/10/29 07:22:29;;;;;;;10.23;4.63;;;10.80;99.90;;;;;;5072194;28;20114;-51
2022/10/29 07:24:55;;;;;;;9.25;5.28;;;10.90;99.90;;;;;;5071017;28;20062;-50
2022/10/29 07:27:21;;;;;;;6.10;5.50;;;11.10;99.90;;;;;;5071915;28;20024;-52
2022/10/29 07:29:46;;;;;;;10.07;7.40;;;11.20;99.90;;;;;;5072204;28;20489;-51
2022/10/29 07:32:12;;;;;;;12.77;7.47;;;11.30;99.90;;;;;;5072039;28;20026;-50
2022/10/29 07:34:37;;;;;;;13.75;7.05;;;11.50;99.90;;;;;;5072187;28;20024;-52
2022/10/29 07:37:03;;;;;;;17.30;6.78;;;11.90;99.90;;;;;;5072037;28;20122;-51
2022/10/29 07:39:29;;;;;;;18.42;6.97;;;12.10;99.90;;;;;;5070373;28;20419;-50
2022/10/29 07:41:54;;;;;;;21.08;9.70;;;12.20;99.90;;;;;;5071959;28;20092;-51
2022/10/29 07:44:26;;;;;;;25.67;10.65;;;12.40;99.90;;;;;;5071848;28;20095;-52
2022/10/29 07:46:52;;;;;;;18.63;9.20;;;12.70;99.90;;;;;;5072063;28;20478;-50
2022/10/29 07:49:17;;;;;;;10.77;7.07;;;12.80;99.90;;;;;;5072099;28;20103;-53
2022/10/29 07:51:43;;;;;;;9.27;6.47;;;13.00;99.90;;;;;;5071236;28;20020;-53
2022/10/29 07:54:09;;;;;;;25.92;12.48;;;13.10;99.90;;;;;;5071733;28;20029;-51
2022/10/29 07:56:34;;;;;;;38.08;10.65;;;13.20;99.90;;;;;;5071630;28;20019;-55
2022/10/29 07:59:00;;;;;;;17.95;9.43;;;13.30;99.90;;;;;;5071835;28;20025;-51
2022/10/29 08:01:26;;;;;;;11.02;4.47;;;13.50;99.90;;;;;;5071597;28;20402;-51
2022/10/29 08:03:51;;;;;;;9.10;5.15;;;13.60;99.90;;;;;;5071682;28;20396;-52
2022/10/29 08:06:17;;;;;;;8.80;4.15;;;13.70;99.90;;;;;;5071365;28;20464;-51
2022/10/29 08:08:43;;;;;;;10.15;6.75;;;13.80;99.90;;;;;;5071414;28;20048;-50
2022/10/29 08:11:08;;;;;;;11.25;6.55;;;13.80;99.90;;;;;;5071620;28;20029;-51
2022/10/29 08:13:34;;;;;;;14.63;5.72;;;13.90;99.90;;;;;;5071146;28;20029;-52
2022/10/29 08:15:59;;;;;;;9.63;5.20;;;14.00;99.90;;;;;;5071686;28;20039;-52
2022/10/29 08:18:25;;;;;;;8.98;5.22;;;14.20;99.90;;;;;;5071529;28;20021;-51
2022/10/29 08:20:51;;;;;;;18.20;5.35;;;14.30;99.90;;;;;;5071264;28;20095;-52
2022/10/29 08:23:16;;;;;;;14.00;7.20;;;14.40;99.90;;;;;;5071200;28;20455;-53
2022/10/29 08:25:42;;;;;;;10.77;4.97;;;14.60;99.90;;;;;;5071740;28;20032;-52
2022/10/29 08:28:10;;;;;;;29.20;8.77;;;14.70;99.90;;;;;;5071074;28;20039;-53
2022/10/29 08:30:37;;;;;;;11.98;6.05;;;14.80;99.90;;;;;;5070517;28;20024;-52
2022/10/29 08:33:03;;;;;;;16.25;7.43;;;14.90;99.90;;;;;;5070012;28;20044;-52
2022/10/29 08:35:30;;;;;;;16.65;4.95;;;15.00;99.90;;;;;;5069414;28;20064;-54
2022/10/29 08:37:56;;;;;;;8.60;4.97;;;15.10;99.90;;;;;;5070099;28;20115;-53
2022/10/29 08:40:38;;;;;;;10.40;4.90;;;15.40;99.90;;;;;;5070308;28;20017;-56
2022/10/29 08:43:51;;;;;;;10.73;4.50;;;15.60;99.90;;;;;;5070734;28;20099;-55
2022/10/29 08:46:28;;;;;;;8.27;4.55;;;15.80;99.90;;;;;;5028264;28;20044;-56
2022/10/29 08:49:01;;;;;;;14.77;4.20;;;15.90;99.90;;;;;;5065491;28;20037;-56
2022/10/29 08:51:39;;;;;;;15.52;3.92;;;16.10;99.90;;;;;;5070013;28;20052;-57
2022/10/29 08:54:12;;;;;;;8.60;4.50;;;16.30;99.90;;;;;;5070021;28;20514;-55
2022/10/29 08:56:42;;;;;;;10.48;5.65;;;16.50;99.90;;;;;;5070062;28;20029;-55
2022/10/29 08:59:12;;;;;;;19.95;5.90;;;16.60;99.90;;;;;;5070221;28;20039;-55
2022/10/29 09:01:38;;;;;;;14.18;8.23;;;16.70;99.90;;;;;;5070788;28;20025;-53
2022/10/29 09:04:22;;;;;;;31.88;15.80;;;17.00;99.90;;;;;;5070933;28;20086;-56
2022/10/29 09:07:13;;;;;;;27.83;16.63;;;17.20;99.90;;;;;;5071149;28;20099;-55
2022/10/29 09:09:44;;;;;;;17.25;8.48;;;17.50;99.90;;;;;;5070587;28;20040;-54
2022/10/29 09:12:25;;;;;;;18.17;6.50;;;17.70;99.90;;;;;;5071037;28;20115;-56
2022/10/29 09:15:02;;;;;;;17.67;7.75;;;18.00;99.90;;;;;;5071057;28;20035;-56
2022/10/29 09:17:46;;;;;;;9.82;5.75;;;18.40;99.90;;;;;;5070785;28;20029;-55
2022/10/29 09:20:47;;;;;;;14.00;6.45;;;18.70;99.90;;;;;;5070805;28;20032;-55
2022/10/29 09:23:24;;;;;;;19.50;4.68;;;18.70;99.90;;;;;;5017261;28;20365;-53
2022/10/29 09:26:26;;;;;;;11.77;4.90;;;18.60;99.90;;;;;;5070914;28;20446;-57
2022/10/29 09:29:17;;;;;;;17.50;4.75;;;18.80;99.90;;;;;;5070873;28;20056;-55
2022/10/29 09:31:58;;;;;;;19.17;5.03;;;19.20;99.90;;;;;;5071000;28;20104;-54
2022/10/29 09:34:36;;;;;;;17.77;4.68;;;19.20;99.90;;;;;;5070737;28;20054;-53
2022/10/29 09:37:03;;;;;;;10.18;3.80;;;19.60;99.90;;;;;;5073878;28;20016;-52
2022/10/29 09:39:40;;;;;;;9.90;4.15;;;20.00;99.90;;;;;;5079918;28;20028;-52
2022/10/29 09:42:12;;;;;;;14.27;4.55;;;20.10;99.90;;;;;;5069865;28;20017;-52
2022/10/29 09:45:01;;;;;;;17.05;4.93;;;20.30;99.90;;;;;;5070444;28;20388;-54
2022/10/29 09:47:49;;;;;;;11.52;4.75;;;20.70;99.90;;;;;;5070354;28;20032;-54
2022/10/29 09:50:20;;;;;;;20.23;3.67;;;21.10;99.90;;;;;;5072998;28;20029;-53
2022/10/29 09:52:48;;;;;;;11.70;4.50;;;21.00;98.70;;;;;;5077063;28;20056;-54
2022/10/29 09:55:38;;;;;;;8.77;3.40;;;21.40;99.00;;;;;;5083613;28;20028;-54
2022/10/29 09:58:05;;;;;;;13.63;4.22;;;21.90;97.70;;;;;;5082713;28;20024;-52
2022/10/29 10:00:31;;;;;;;8.18;3.33;;;22.00;96.30;;;;;;5075672;28;20594;-52
2022/10/29 10:03:09;;;;;;;10.98;3.55;;;21.60;96.90;;;;;;5072913;28;20029;-54
2022/10/29 10:05:53;;;;;;;12.25;3.75;;;21.70;97.70;;;;;;5081117;28;20360;-56
2022/10/29 10:08:19;;;;;;;8.90;3.33;;;21.80;97.00;;;;;;5073155;28;20063;-54
2022/10/29 10:10:51;;;;;;;8.10;3.35;;;21.70;96.00;;;;;;5073589;28;20024;-57
2022/10/29 10:13:18;;;;;;;24.83;4.57;;;21.20;95.50;;;;;;5074562;28;20221;-54
2022/10/29 10:15:58;;;;;;;15.85;3.85;;;20.60;96.10;;;;;;5075975;28;20028;-55
2022/10/29 10:18:25;;;;;;;13.98;3.25;;;20.50;97.10;;;;;;5073278;28;20025;-55
2022/10/29 10:21:07;;;;;;;17.67;3.63;;;20.80;97.20;;;;;;5075976;28;20074;-52
2022/10/29 10:23:51;;;;;;;11.68;3.70;;;21.00;97.20;;;;;;5075570;28;20029;-54
2022/10/29 10:26:31;;;;;;;17.20;4.40;;;21.20;98.00;;;;;;5077041;28;20690;-53
2022/10/29 10:29:18;;;;;;;11.80;3.75;;;21.40;96.40;;;;;;5073493;28;20097;-56
2022/10/29 10:31:48;;;;;;;11.10;3.55;;;21.30;96.30;;;;;;5077573;28;20187;-54
2022/10/29 10:34:24;;;;;;;16.20;3.92;;;21.20;96.30;;;;;;5072924;28;20036;-54
2022/10/29 10:36:53;;;;;;;13.40;3.72;;;21.40;96.60;;;;;;5072765;28;20024;-55
2022/10/29 10:39:25;;;;;;;27.52;5.88;;;21.60;96.00;;;;;;5072626;28;20060;-56
2022/10/29 10:41:51;;;;;;;25.27;6.18;;;21.40;96.70;;;;;;5071570;28;20032;-52
2022/10/29 10:44:20;;;;;;;25.35;8.38;;;21.40;96.90;;;;;;5071131;28;20027;-54
2022/10/29 10:46:46;;;;;;;55.67;8.50;;;21.30;97.50;;;;;;5072192;28;20115;-55
2022/10/29 10:49:33;;;;;;;170.07;122.43;;;21.30;97.80;;;;;;5072111;28;20096;-53
2022/10/29 10:52:02;;;;;;;79.80;62.33;;;21.40;99.50;;;;;;5070014;28;20024;-53
2022/10/29 10:54:36;;;;;;;33.83;20.05;;;21.30;99.90;;;;;;5072301;28;20036;-56
2022/10/29 10:57:24;;;;;;;42.58;29.80;;;21.60;99.90;;;;;;5072432;28;20020;-54
2022/10/29 11:00:05;;;;;;;58.22;40.05;;;21.90;99.40;;;;;;5071738;28;20512;-55
2022/10/29 11:03:12;;;;;;;109.00;83.03;;;21.80;99.30;;;;;;5072420;28;20017;-54
2022/10/29 11:05:48;;;;;;;117.90;91.88;;;21.50;99.90;;;;;;5072462;28;20526;-55
2022/10/29 11:08:29;;;;;;;33.22;23.13;;;21.80;99.60;;;;;;5071875;28;20132;-57
2022/10/29 11:11:18;;;;;;;44.20;25.38;;;21.90;99.50;;;;;;5072083;28;20197;-56
2022/10/29 11:13:44;;;;;;;84.75;58.60;;;21.90;99.10;;;;;;5072074;28;20425;-57
2022/10/29 11:16:36;;;;;;;85.10;65.07;;;22.20;98.10;;;;;;5071538;28;20032;-56
2022/10/29 11:19:04;;;;;;;48.55;32.85;;;22.30;97.50;;;;;;5071011;28;20463;-56
2022/10/29 11:21:45;;;;;;;17.17;9.55;;;22.60;97.10;;;;;;5071495;28;20051;-56
2022/10/29 11:24:24;;;;;;;52.13;29.95;;;22.80;97.40;;;;;;5070768;28;20025;-57
2022/10/29 11:27:13;;;;;;;21.90;8.55;;;23.10;97.20;;;;;;5072011;28;20491;-54
2022/10/29 11:30:08;;;;;;;12.35;4.57;;;23.10;95.70;;;;;;5070124;28;20639;-54
2022/10/29 11:33:12;;;;;;;14.43;4.28;;;23.50;95.50;;;;;;5062408;28;20368;-54
2022/10/29 11:35:48;;;;;;;10.50;4.28;;;23.70;96.60;;;;;;5072206;28;20020;-55
2022/10/29 11:38:30;;;;;;;46.88;29.05;;;23.50;95.90;;;;;;5071893;28;20020;-54
2022/10/29 11:41:03;;;;;;;65.10;43.22;;;23.90;95.00;;;;;;5071834;28;20514;-57
2022/10/29 11:43:30;;;;;;;12.77;5.15;;;24.70;92.20;;;;;;5071104;28;20460;-57
2022/10/29 11:46:17;;;;;;;45.20;18.10;;;26.00;91.30;;;;;;5071382;28;20051;-55
2022/10/29 11:48:58;;;;;;;28.95;15.40;;;25.90;91.00;;;;;;5071295;28;20016;-54
2022/10/29 11:51:35;;;;;;;27.20;15.90;;;26.30;91.40;;;;;;5071544;28;20025;-56
2022/10/29 11:54:37;;;;;;;56.72;39.45;;;25.60;90.50;;;;;;5071207;28;20379;-57
2022/10/29 11:57:18;;;;;;;28.67;16.50;;;25.10;90.90;;;;;;5043279;28;20025;-57
2022/10/29 12:00:19;;;;;;;30.50;17.02;;;25.20;92.30;;;;;;5071622;28;20040;-57
2022/10/29 12:03:06;;;;;;;9.80;5.60;;;25.10;92.00;;;;;;5029371;28;20066;-56
2022/10/29 12:05:56;;;;;;;18.13;6.05;;;25.20;91.30;;;;;;5070731;28;20028;-57
2022/10/29 12:08:37;;;;;;;22.40;10.38;;;24.90;91.80;;;;;;5069836;28;20044;-56
2022/10/29 12:11:12;;;;;;;28.73;15.68;;;24.50;92.40;;;;;;5067272;28;20031;-56
2022/10/29 12:13:55;;;;;;;26.92;5.75;;;24.40;92.50;;;;;;5071199;28;20024;-56
2022/10/29 12:16:28;;;;;;;17.55;6.40;;;24.50;92.30;;;;;;5067951;28;20024;-56
2022/10/29 12:19:10;;;;;;;18.88;6.43;;;24.40;92.50;;;;;;5071065;28;20025;-57
2022/10/29 12:21:45;;;;;;;21.17;6.57;;;24.30;93.10;;;;;;5070912;28;20035;-56
2022/10/29 12:24:29;;;;;;;10.32;5.43;;;23.90;93.80;;;;;;5070948;28;20023;-57
2022/10/29 12:27:09;;;;;;;17.70;5.25;;;23.30;94.50;;;;;;5070850;28;20020;-56
2022/10/29 12:29:46;;;;;;;17.83;6.43;;;22.70;96.60;;;;;;5070579;28;20025;-56
2022/10/29 12:32:24;;;;;;;17.77;13.25;;;22.20;96.90;;;;;;5070738;28;20707;-55
2022/10/29 12:35:05;;;;;;;17.05;9.30;;;21.90;98.30;;;;;;5070617;28;20020;-55
2022/10/29 12:37:34;;;;;;;18.50;8.07;;;21.40;99.70;;;;;;5070708;28;20021;-51
2022/10/29 12:40:08;;;;;;;22.60;10.18;;;21.20;99.70;;;;;;5066323;28;20499;-50
2022/10/29 12:42:34;;;;;;;19.35;8.32;;;21.10;99.90;;;;;;5069529;28;20051;-55
2022/10/29 12:45:11;;;;;;;12.00;6.20;;;21.00;99.90;;;;;;5071187;28;20028;-52
2022/10/29 12:48:12;;;;;;;21.55;6.13;;;20.90;99.90;;;;;;5071153;28;20483;-52
2022/10/29 12:51:19;;;;;;;9.00;4.97;;;20.90;99.90;;;;;;5032393;28;20422;-53
2022/10/29 12:54:15;;;;;;;11.27;5.45;;;20.70;99.90;;;;;;5070987;28;20022;-52
2022/10/29 12:56:41;;;;;;;24.77;14.10;;;20.70;99.90;;;;;;5052625;28;20024;-51
2022/10/29 12:59:30;;;;;;;79.15;48.03;;;20.90;99.90;;;;;;5069001;28;20036;-51
2022/10/29 13:02:28;;;;;;;16.13;10.48;;;20.80;99.90;;;;;;5068328;28;20283;-50
2022/10/29 13:05:08;;;;;;;32.67;20.88;;;20.70;99.90;;;;;;5069438;28;20032;-52
2022/10/29 13:07:35;;;;;;;22.85;14.77;;;20.90;99.90;;;;;;5067703;28;20054;-54